createdAt,value
2023-03-02T00:01:44.130Z,37.24
2023-03-02T00:04:14.527Z,36.90
2023-03-02T00:06:41.602Z,37.08
2023-03-02T00:09:08.433Z,37.25
2023-03-02T00:11:37.739Z,36.92
2023-03-02T00:14:05.223Z,37.40
2023-03-02T00:16:32.683Z,37.35
2023-03-02T00:18:59.673Z,37.22
2023-03-02T00:21:26.387Z,37.39
2023-03-02T00:23:53.244Z,37.01
2023-03-02T00:26:20.128Z,37.47
2023-03-02T00:28:47.430Z,37.56
2023-03-02T00:31:14.185Z,37.59
2023-03-02T00:33:40.968Z,37.73
2023-03-02T00:36:17.611Z,37.44
2023-03-02T00:38:44.774Z,37.26
2023-03-02T00:41:13.285Z,37.76
2023-03-02T00:43:40.040Z,37.21
2023-03-02T00:46:15.127Z,37.60
2023-03-02T00:48:42.420Z,37.69
2023-03-02T00:51:09.451Z,37.28
2023-03-02T00:53:36.970Z,37.33
2023-03-02T00:56:04.376Z,37.55
2023-03-02T00:58:33.300Z,37.15
2023-03-02T01:01:07.126Z,37.33
2023-03-02T01:03:36.432Z,37.29
2023-03-02T01:06:04.685Z,37.37
2023-03-02T01:08:31.461Z,37.54
2023-03-02T01:11:01.210Z,37.62
2023-03-02T01:13:28.317Z,37.39
2023-03-02T01:16:04.104Z,37.54
2023-03-02T01:18:32.081Z,37.77
2023-03-02T01:21:06.880Z,37.45
2023-03-02T01:23:33.667Z,37.19
2023-03-02T01:26:00.431Z,37.55
2023-03-02T01:28:27.173Z,37.38
2023-03-02T01:30:54.302Z,37.62
2023-03-02T01:33:21.526Z,37.11
2023-03-02T01:35:48.849Z,36.99
2023-03-02T01:38:16.036Z,37.10
2023-03-02T01:40:42.869Z,37.57
2023-03-02T01:43:14.868Z,37.80
2023-03-02T01:45:46.481Z,37.14
2023-03-02T01:48:20.365Z,37.56
2023-03-02T01:50:47.486Z,37.89
2023-03-02T01:53:15.713Z,37.75
2023-03-02T01:55:44.074Z,37.98
2023-03-02T01:58:12.604Z,37.48
2023-03-02T02:00:40.346Z,37.71
2023-03-02T02:03:20.838Z,37.64
2023-03-02T02:06:21.920Z,37.51
2023-03-02T02:08:49.549Z,37.47
2023-03-02T02:11:16.305Z,37.83
2023-03-02T02:13:43.417Z,37.44
2023-03-02T02:16:10.295Z,37.98
2023-03-02T02:18:39.671Z,37.48
2023-03-02T02:21:07.861Z,37.84
2023-03-02T02:23:52.209Z,38.11
2023-03-02T02:26:29.244Z,38.33
2023-03-02T02:29:22.921Z,37.62
2023-03-02T02:31:55.173Z,38.08
2023-03-02T02:34:31.028Z,38.26
2023-03-02T02:37:04.026Z,37.98
2023-03-02T02:39:33.816Z,38.55
2023-03-02T02:42:04.149Z,38.06
2023-03-02T02:44:31.481Z,38.14
2023-03-02T02:46:58.236Z,38.12
2023-03-02T02:49:33.229Z,38.29
2023-03-02T02:52:00.090Z,38.17
2023-03-02T02:54:28.205Z,37.97
2023-03-02T02:56:55.869Z,38.04
2023-03-02T02:59:28.791Z,38.09
2023-03-02T03:01:59.048Z,38.57
2023-03-02T03:04:28.691Z,38.08
2023-03-02T03:06:58.459Z,38.52
2023-03-02T03:09:26.460Z,38.76
2023-03-02T03:11:56.552Z,38.39
2023-03-02T03:14:30.840Z,37.97
2023-03-02T03:16:57.811Z,38.50
2023-03-02T03:19:27.882Z,38.13
2023-03-02T03:21:58.915Z,38.47
2023-03-02T03:24:29.110Z,38.04
2023-03-02T03:26:56.903Z,38.03
2023-03-02T03:29:25.790Z,38.53
2023-03-02T03:31:56.782Z,38.62
2023-03-02T03:34:24.669Z,38.51
2023-03-02T03:36:52.248Z,38.34
2023-03-02T03:39:20.029Z,38.40
2023-03-02T03:41:48.058Z,38.21
2023-03-02T03:44:14.799Z,38.66
2023-03-02T03:46:43.583Z,38.07
2023-03-02T03:49:10.615Z,38.26
2023-03-02T03:51:37.383Z,38.37
2023-03-02T03:54:08.238Z,38.03
2023-03-02T03:56:46.265Z,38.76
2023-03-02T03:59:19.998Z,38.08
2023-03-02T04:01:56.081Z,38.43
2023-03-02T04:04:27.883Z,37.96
2023-03-02T04:06:55.606Z,38.54
2023-03-02T04:09:23.285Z,38.43
2023-03-02T04:11:52.086Z,39.02
2023-03-02T04:14:20.270Z,39.07
2023-03-02T04:16:47.025Z,38.86
2023-03-02T04:19:14.551Z,38.47
2023-03-02T04:21:45.599Z,39.03
2023-03-02T04:24:14.388Z,38.58
2023-03-02T04:26:42.306Z,38.86
2023-03-02T04:29:09.729Z,38.59
2023-03-02T04:31:38.479Z,38.99
2023-03-02T04:34:06.900Z,38.79
2023-03-02T04:36:38.886Z,38.24
2023-03-02T04:39:08.803Z,38.48
2023-03-02T04:41:36.189Z,38.60
2023-03-02T04:44:03.034Z,38.79
2023-03-02T04:46:29.833Z,38.26
2023-03-02T04:48:56.535Z,38.06
2023-03-02T04:51:26.413Z,37.97
2023-03-02T04:53:55.222Z,38.08
2023-03-02T04:56:22.271Z,38.32
2023-03-02T04:58:49.302Z,38.20
2023-03-02T05:01:17.215Z,38.17
2023-03-02T05:03:44.253Z,38.65
2023-03-02T05:06:11.384Z,38.32
2023-03-02T05:08:38.722Z,38.42
2023-03-02T05:11:07.688Z,38.30
2023-03-02T05:13:35.274Z,38.25
2023-03-02T05:16:02.483Z,38.56
2023-03-02T05:18:29.359Z,38.11
2023-03-02T05:20:56.048Z,38.40
2023-03-02T05:23:27.351Z,38.96
2023-03-02T05:25:55.329Z,38.38
2023-03-02T05:28:23.921Z,38.94
2023-03-02T05:30:50.883Z,38.79
2023-03-02T05:33:18.518Z,38.42
2023-03-02T05:35:45.865Z,38.95
2023-03-02T05:38:13.442Z,38.43
2023-03-02T05:40:42.203Z,38.97
2023-03-02T05:43:10.184Z,38.77
2023-03-02T05:45:38.464Z,38.80
2023-03-02T05:48:06.324Z,39.00
2023-03-02T05:50:33.128Z,38.82
2023-03-02T05:53:02.239Z,38.36
2023-03-02T05:55:29.753Z,38.87
2023-03-02T05:57:56.800Z,38.95
2023-03-02T06:00:23.657Z,38.68
2023-03-02T06:02:50.451Z,38.54
2023-03-02T06:05:19.354Z,39.29
2023-03-02T06:07:46.102Z,38.63
2023-03-02T06:10:13.508Z,39.40
2023-03-02T06:12:40.785Z,39.12
2023-03-02T06:15:08.017Z,39.23
2023-03-02T06:17:34.730Z,38.91
2023-03-02T06:20:01.508Z,39.60
2023-03-02T06:22:28.202Z,38.96
2023-03-02T06:24:57.566Z,39.02
2023-03-02T06:27:24.278Z,39.44
2023-03-02T06:29:51.048Z,39.67
2023-03-02T06:32:17.994Z,39.20
2023-03-02T06:34:44.845Z,39.62
2023-03-02T06:37:11.614Z,39.39
2023-03-02T06:39:38.295Z,39.42
2023-03-02T06:42:05.006Z,39.87
2023-03-02T06:44:31.737Z,39.67
2023-03-02T06:46:58.418Z,39.29
2023-03-02T06:49:25.205Z,39.48
2023-03-02T06:51:51.990Z,39.38
2023-03-02T06:54:18.725Z,39.15
2023-03-02T06:56:45.420Z,39.32
2023-03-02T06:59:12.162Z,39.72
2023-03-02T07:01:38.940Z,39.47
2023-03-02T07:04:05.762Z,39.90
2023-03-02T07:06:32.501Z,39.54
2023-03-02T07:08:59.226Z,39.47
2023-03-02T07:11:25.926Z,39.67
2023-03-02T07:13:52.655Z,39.92
2023-03-02T07:16:19.444Z,39.86
2023-03-02T07:18:46.220Z,39.84
2023-03-02T07:21:13.017Z,39.87
2023-03-02T07:23:39.782Z,39.55
2023-03-02T07:26:08.372Z,39.78
2023-03-02T07:28:39.640Z,39.92
2023-03-02T07:31:06.557Z,39.53
2023-03-02T07:33:33.322Z,40.06
2023-03-02T07:36:00.360Z,39.68
2023-03-02T07:38:27.073Z,39.75
2023-03-02T07:40:54.012Z,40.13
2023-03-02T07:43:21.211Z,39.99
2023-03-02T07:45:47.937Z,39.90
2023-03-02T07:48:14.668Z,39.63
2023-03-02T07:50:41.463Z,39.85
2023-03-02T07:53:08.253Z,39.59
2023-03-02T07:55:34.934Z,39.73
2023-03-02T07:58:01.674Z,39.83
2023-03-02T08:00:28.490Z,39.81
2023-03-02T08:02:55.316Z,39.86
2023-03-02T08:05:22.122Z,39.93
2023-03-02T08:07:49.110Z,39.84
2023-03-02T08:10:15.853Z,39.85
2023-03-02T08:12:43.937Z,40.01
2023-03-02T08:15:11.067Z,40.01
2023-03-02T08:17:38.568Z,39.97
2023-03-02T08:20:06.420Z,40.02
2023-03-02T08:22:33.110Z,39.89
2023-03-02T08:24:59.819Z,39.87
2023-03-02T08:27:26.509Z,39.99
2023-03-02T08:29:54.221Z,40.03
2023-03-02T08:32:21.065Z,40.16
2023-03-02T08:34:51.531Z,40.15
2023-03-02T08:37:19.358Z,40.24
2023-03-02T08:39:46.128Z,40.40
2023-03-02T08:42:12.844Z,40.31
2023-03-02T08:44:39.533Z,40.29
2023-03-02T08:47:06.294Z,40.16
2023-03-02T08:49:32.979Z,40.31
2023-03-02T08:52:00.556Z,40.23
2023-03-02T08:54:27.358Z,40.12
2023-03-02T08:56:54.161Z,40.13
2023-03-02T08:59:21.651Z,39.71
2023-03-02T09:01:48.848Z,40.64
2023-03-02T09:04:15.639Z,40.42
2023-03-02T09:06:44.468Z,40.33
2023-03-02T09:09:13.160Z,40.23
2023-03-02T09:11:40.238Z,40.50
2023-03-02T09:14:06.932Z,40.25
2023-03-02T09:16:33.737Z,40.27
2023-03-02T09:19:01.477Z,40.36
2023-03-02T09:21:38.263Z,40.19
2023-03-02T09:24:05.601Z,40.17
2023-03-02T09:26:32.386Z,40.30
2023-03-02T09:28:59.239Z,40.23
2023-03-02T09:31:27.880Z,40.27
2023-03-02T09:33:56.960Z,40.23
2023-03-02T09:36:25.116Z,40.55
2023-03-02T09:38:52.464Z,40.37
2023-03-02T09:41:19.554Z,40.25
2023-03-02T09:44:01.190Z,40.67
2023-03-02T09:46:37.709Z,40.54
2023-03-02T09:49:37.848Z,40.81
2023-03-02T09:52:11.576Z,40.38
2023-03-02T09:54:40.266Z,40.67
2023-03-02T09:57:24.384Z,40.45
2023-03-02T10:00:04.011Z,40.22
2023-03-02T10:03:05.149Z,40.29
2023-03-02T10:05:43.171Z,40.24
2023-03-02T10:08:18.641Z,40.54
2023-03-02T10:11:03.467Z,40.47
2023-03-02T10:13:52.452Z,40.15
2023-03-02T10:16:45.686Z,40.06
2023-03-02T10:19:16.263Z,40.44
2023-03-02T10:21:47.196Z,40.02
2023-03-02T10:24:39.701Z,40.29
2023-03-02T10:27:18.946Z,39.85
2023-03-02T10:29:51.281Z,39.86
2023-03-02T10:32:21.153Z,40.09
2023-03-02T10:34:49.954Z,40.02
2023-03-02T10:37:25.353Z,40.19
2023-03-02T10:39:52.533Z,39.99
2023-03-02T10:42:26.989Z,39.87
2023-03-02T10:45:03.389Z,40.01
2023-03-02T10:47:30.214Z,39.73
2023-03-02T10:49:57.770Z,40.20
2023-03-02T10:52:26.519Z,39.86
2023-03-02T10:55:09.882Z,39.79
2023-03-02T10:57:42.064Z,39.81
2023-03-02T11:00:28.620Z,40.12
2023-03-02T11:02:58.054Z,40.04
2023-03-02T11:05:35.566Z,39.96
2023-03-02T11:08:04.020Z,40.25
2023-03-02T11:10:36.644Z,40.24
2023-03-02T11:13:17.042Z,40.16
2023-03-02T11:15:47.206Z,40.10
2023-03-02T11:18:27.449Z,40.14
2023-03-02T11:20:58.502Z,39.91
2023-03-02T11:23:59.003Z,40.02
2023-03-02T11:26:35.122Z,39.98
2023-03-02T11:29:06.331Z,39.92
2023-03-02T11:31:49.306Z,39.88
2023-03-02T11:34:29.453Z,39.74
2023-03-02T11:37:00.449Z,39.92
2023-03-02T11:39:37.449Z,39.72
2023-03-02T11:42:18.839Z,39.84
2023-03-02T11:44:47.189Z,39.83
2023-03-02T11:47:14.385Z,40.07
2023-03-02T11:49:45.430Z,39.80
2023-03-02T11:52:46.552Z,40.01
2023-03-02T11:55:13.261Z,39.93
2023-03-02T11:57:49.398Z,39.64
2023-03-02T12:00:27.634Z,40.11
2023-03-02T12:03:03.077Z,40.03
2023-03-02T12:05:34.797Z,39.92
2023-03-02T12:08:07.367Z,40.09
2023-03-02T12:10:40.268Z,40.03
2023-03-02T12:13:14.796Z,40.14
2023-03-02T12:15:45.213Z,40.41
2023-03-02T12:18:43.236Z,40.61
2023-03-02T12:21:13.160Z,40.70
2023-03-02T12:23:49.103Z,40.90
2023-03-02T12:26:21.850Z,40.92
2023-03-02T12:29:09.879Z,41.05
2023-03-02T12:31:50.725Z,40.89
2023-03-02T12:34:23.501Z,40.82
2023-03-02T12:36:58.108Z,40.93
2023-03-02T12:40:03.417Z,40.97
2023-03-02T12:42:38.851Z,41.01
2023-03-02T12:45:18.456Z,41.13
2023-03-02T12:47:48.408Z,41.13
2023-03-02T12:50:20.862Z,41.33
2023-03-02T12:53:06.481Z,41.58
2023-03-02T12:55:34.289Z,41.36
2023-03-02T12:58:01.653Z,41.60
2023-03-02T13:00:31.829Z,41.87
2023-03-02T13:02:59.911Z,42.23
2023-03-02T13:05:30.016Z,42.26
2023-03-02T13:08:03.919Z,42.90
2023-03-02T13:10:38.029Z,42.82
2023-03-02T13:13:26.199Z,42.96
2023-03-02T13:15:57.774Z,42.90
2023-03-02T13:18:31.753Z,42.83
2023-03-02T13:20:59.973Z,42.37
2023-03-02T13:23:28.846Z,42.04
2023-03-02T13:25:57.741Z,41.65
2023-03-02T13:28:34.636Z,41.37
2023-03-02T13:31:18.560Z,40.64
2023-03-02T13:33:47.069Z,41.19
2023-03-02T13:36:27.646Z,41.17
2023-03-02T13:38:57.406Z,41.54
2023-03-02T13:41:26.512Z,41.64
2023-03-02T13:43:53.253Z,41.32
2023-03-02T13:46:19.986Z,41.54
2023-03-02T13:49:09.095Z,41.67
2023-03-02T13:51:45.505Z,40.75
2023-03-02T13:54:15.085Z,40.24
2023-03-02T13:56:43.939Z,40.40
2023-03-02T13:59:16.650Z,39.93
2023-03-02T14:01:44.089Z,39.92
2023-03-02T14:04:17.524Z,39.31
2023-03-02T14:06:45.129Z,38.67
2023-03-02T14:09:11.925Z,38.29
2023-03-02T14:11:40.326Z,37.42
2023-03-02T14:14:07.584Z,37.20
2023-03-02T14:16:35.974Z,36.63
2023-03-02T14:19:03.132Z,36.43
2023-03-02T14:21:30.418Z,35.73
2023-03-02T14:23:58.786Z,35.52
2023-03-02T14:26:47.990Z,35.08
2023-03-02T14:29:28.206Z,34.63
2023-03-02T14:31:56.263Z,33.83
2023-03-02T14:34:23.232Z,33.18
2023-03-02T14:36:52.962Z,32.83
2023-03-02T14:39:36.985Z,32.25
2023-03-02T14:42:12.924Z,32.32
2023-03-02T14:44:40.396Z,32.04
2023-03-02T14:47:09.892Z,32.41
2023-03-02T14:49:37.483Z,32.50
2023-03-02T14:52:17.636Z,32.55
2023-03-02T14:54:46.791Z,32.60
2023-03-02T14:57:19.638Z,33.13
2023-03-02T14:59:46.901Z,33.23
2023-03-02T15:02:24.800Z,33.32
2023-03-02T15:04:56.167Z,33.08
2023-03-02T15:07:24.565Z,32.96
2023-03-02T15:09:51.292Z,32.99
2023-03-02T15:12:18.008Z,33.22
2023-03-02T15:14:44.825Z,33.41
2023-03-02T15:17:11.687Z,32.35
2023-03-02T15:19:38.445Z,32.77
2023-03-02T15:22:05.134Z,33.03
2023-03-02T15:24:33.392Z,33.11
2023-03-02T15:27:00.358Z,32.84
2023-03-02T15:29:27.081Z,32.93
2023-03-02T15:31:53.953Z,32.87
2023-03-02T15:34:21.023Z,32.82
2023-03-02T15:36:47.722Z,32.55
2023-03-02T15:39:14.795Z,32.18
2023-03-02T15:41:44.505Z,31.70
2023-03-02T15:44:21.744Z,31.54
2023-03-02T15:46:49.534Z,31.61
2023-03-02T15:49:16.928Z,31.44
2023-03-02T15:51:43.681Z,31.39
2023-03-02T15:54:11.574Z,31.28
2023-03-02T15:56:44.135Z,31.40
2023-03-02T15:59:11.771Z,31.43
2023-03-02T16:01:38.482Z,31.39
2023-03-02T16:04:05.223Z,31.43
2023-03-02T16:06:32.011Z,31.45
2023-03-02T16:08:58.741Z,31.37
2023-03-02T16:11:25.564Z,31.42
2023-03-02T16:13:52.491Z,31.41
2023-03-02T16:16:20.056Z,31.46
2023-03-02T16:18:54.557Z,31.26
2023-03-02T16:21:22.090Z,31.57
2023-03-02T16:23:48.977Z,31.23
2023-03-02T16:26:19.259Z,31.34
2023-03-02T16:28:45.990Z,31.57
2023-03-02T16:31:15.741Z,31.66
2023-03-02T16:33:42.510Z,31.47
2023-03-02T16:36:10.240Z,31.80
2023-03-02T16:38:37.685Z,31.49
2023-03-02T16:41:06.018Z,31.72
2023-03-02T16:43:32.750Z,31.67
2023-03-02T16:45:59.543Z,31.93
2023-03-02T16:48:26.295Z,31.85
2023-03-02T16:50:57.811Z,31.91
2023-03-02T16:53:24.930Z,31.92
2023-03-02T16:55:51.691Z,31.94
2023-03-02T16:58:18.401Z,32.06
2023-03-02T17:00:45.260Z,31.85
2023-03-02T17:03:12.244Z,31.98
2023-03-02T17:05:42.554Z,32.00
2023-03-02T17:08:13.590Z,32.19
2023-03-02T17:10:40.745Z,32.42
2023-03-02T17:13:08.205Z,32.67
2023-03-02T17:15:35.124Z,32.87
2023-03-02T17:18:01.932Z,32.99
2023-03-02T17:20:28.728Z,33.10
2023-03-02T17:22:55.597Z,33.10
2023-03-02T17:25:22.756Z,33.26
2023-03-02T17:27:49.495Z,33.29
2023-03-02T17:30:16.319Z,33.42
2023-03-02T17:32:43.108Z,33.69
2023-03-02T17:35:12.508Z,33.72
2023-03-02T17:37:39.561Z,33.69
2023-03-02T17:40:07.990Z,33.81
2023-03-02T17:42:34.697Z,33.78
2023-03-02T17:45:01.397Z,33.83
2023-03-02T17:47:28.439Z,33.87
2023-03-02T17:49:56.194Z,34.04
2023-03-02T17:52:22.932Z,33.90
2023-03-02T17:54:49.866Z,34.23
2023-03-02T17:57:21.754Z,34.37
2023-03-02T17:59:50.327Z,34.25
2023-03-02T18:02:18.076Z,34.45
2023-03-02T18:04:45.475Z,34.46
2023-03-02T18:07:12.900Z,34.59
2023-03-02T18:09:39.778Z,34.69
2023-03-02T18:12:07.597Z,34.76
2023-03-02T18:14:35.426Z,34.89
2023-03-02T18:17:04.778Z,34.84
2023-03-02T18:19:31.576Z,35.04
2023-03-02T18:21:58.467Z,35.03
2023-03-02T18:24:25.358Z,35.26
2023-03-02T18:26:52.062Z,35.21
2023-03-02T18:29:18.913Z,35.01
2023-03-02T18:31:45.719Z,35.42
2023-03-02T18:34:12.454Z,35.27
2023-03-02T18:36:39.189Z,35.00
2023-03-02T18:39:05.947Z,35.09
2023-03-02T18:41:32.708Z,35.39
2023-03-02T18:44:01.207Z,35.57
2023-03-02T18:46:29.510Z,35.33
2023-03-02T18:48:56.908Z,35.03
2023-03-02T18:51:24.957Z,35.51
2023-03-02T18:53:52.422Z,35.03
2023-03-02T18:56:19.582Z,35.30
2023-03-02T18:58:46.805Z,35.20
2023-03-02T19:01:49.189Z,35.65
2023-03-02T19:04:16.246Z,36.12
2023-03-02T19:06:43.448Z,36.09
2023-03-02T19:09:10.930Z,36.40
2023-03-02T19:11:37.759Z,36.61
2023-03-02T19:14:04.790Z,36.68
2023-03-02T19:16:31.942Z,36.83
2023-03-02T19:18:58.740Z,37.29
2023-03-02T19:21:25.617Z,37.45
2023-03-02T19:23:52.473Z,37.45
2023-03-02T19:26:19.466Z,37.92
2023-03-02T19:28:46.421Z,37.97
2023-03-02T19:31:13.614Z,37.71
2023-03-02T19:33:41.162Z,38.13
2023-03-02T19:36:08.846Z,38.17
2023-03-02T19:38:37.803Z,38.10
2023-03-02T19:41:04.849Z,38.12
2023-03-02T19:43:31.985Z,38.28
2023-03-02T19:45:58.900Z,38.33
2023-03-02T19:48:25.727Z,38.58
2023-03-02T19:50:53.026Z,38.73
2023-03-02T19:53:19.928Z,38.48
2023-03-02T19:55:46.868Z,38.70
2023-03-02T19:58:19.598Z,38.77
2023-03-02T20:00:47.251Z,38.85
2023-03-02T20:03:14.166Z,38.55
2023-03-02T20:05:40.950Z,38.71
2023-03-02T20:08:08.666Z,38.88
2023-03-02T20:10:42.488Z,39.38
2023-03-02T20:13:10.252Z,39.39
2023-03-02T20:15:40.941Z,39.10
2023-03-02T20:18:12.796Z,39.40
2023-03-02T20:20:39.687Z,39.30
2023-03-02T20:23:06.708Z,39.58
2023-03-02T20:25:34.948Z,39.44
2023-03-02T20:28:05.446Z,39.32
2023-03-02T20:30:42.744Z,39.88
2023-03-02T20:33:10.725Z,39.47
2023-03-02T20:35:41.054Z,40.07
2023-03-02T20:38:21.475Z,39.69
2023-03-02T20:40:48.333Z,39.70
2023-03-02T20:43:15.304Z,39.82
2023-03-02T20:45:42.251Z,39.67
2023-03-02T20:48:09.470Z,39.83
2023-03-02T20:50:37.443Z,39.91
2023-03-02T20:53:05.699Z,40.22
2023-03-02T20:55:33.215Z,39.82
2023-03-02T20:58:01.092Z,39.95
2023-03-02T21:00:30.329Z,40.12
2023-03-02T21:02:57.866Z,40.07
2023-03-02T21:05:26.832Z,40.01
2023-03-02T21:07:54.895Z,40.05
2023-03-02T21:10:28.736Z,40.26
2023-03-02T21:12:55.675Z,40.35
2023-03-02T21:15:23.916Z,40.54
2023-03-02T21:17:54.409Z,40.35
2023-03-02T21:20:31.092Z,40.44
2023-03-02T21:22:59.456Z,40.46
2023-03-02T21:25:26.934Z,40.32
2023-03-02T21:27:54.319Z,40.54
2023-03-02T21:30:29.469Z,40.75
2023-03-02T21:32:56.755Z,40.61
2023-03-02T21:35:23.895Z,40.53
2023-03-02T21:37:55.120Z,40.72
2023-03-02T21:40:31.339Z,40.82
2023-03-02T21:43:00.333Z,40.75
2023-03-02T21:45:27.461Z,40.81
2023-03-02T21:47:54.689Z,40.85
2023-03-02T21:50:35.618Z,40.92
2023-03-02T21:53:03.107Z,40.91
2023-03-02T21:55:30.985Z,40.88
2023-03-02T21:57:58.478Z,41.30
2023-03-02T22:00:33.851Z,41.47
2023-03-02T22:03:01.771Z,41.13
2023-03-02T22:05:29.293Z,41.31
2023-03-02T22:07:56.492Z,41.15
2023-03-02T22:10:44.645Z,41.58
2023-03-02T22:13:42.593Z,41.47
2023-03-02T22:16:18.071Z,41.54
2023-03-02T22:18:46.924Z,41.44
2023-03-02T22:21:33.237Z,41.70
2023-03-02T22:24:09.053Z,41.44
2023-03-02T22:26:49.653Z,41.38
2023-03-02T22:29:23.474Z,41.37
2023-03-02T22:31:53.979Z,41.68
2023-03-02T22:34:30.112Z,41.33
2023-03-02T22:37:10.068Z,41.58
2023-03-02T22:39:37.050Z,41.45
2023-03-02T22:42:14.419Z,41.98
2023-03-02T22:44:42.593Z,41.88
2023-03-02T22:47:19.744Z,41.91
2023-03-02T22:49:50.171Z,42.31
2023-03-02T22:52:23.739Z,42.07
2023-03-02T22:54:51.096Z,42.14
2023-03-02T22:57:34.065Z,42.55
2023-03-02T23:00:15.971Z,42.29
2023-03-02T23:02:45.097Z,42.51
2023-03-02T23:05:38.466Z,42.83
2023-03-02T23:08:28.072Z,42.80
2023-03-02T23:10:58.392Z,42.50
2023-03-02T23:13:36.951Z,42.69
2023-03-02T23:16:18.569Z,42.98
2023-03-02T23:18:47.743Z,42.60
2023-03-02T23:21:38.494Z,42.75
2023-03-02T23:24:07.541Z,42.87
2023-03-02T23:26:34.985Z,42.58
2023-03-02T23:29:01.900Z,42.63
2023-03-02T23:31:28.821Z,43.01
2023-03-02T23:33:55.699Z,42.99
2023-03-02T23:36:22.590Z,42.90
2023-03-02T23:38:50.336Z,43.07
2023-03-02T23:41:18.114Z,43.06
2023-03-02T23:43:44.954Z,42.96
2023-03-02T23:46:14.034Z,43.07
2023-03-02T23:48:42.405Z,43.03
2023-03-02T23:51:10.068Z,43.11
2023-03-02T23:53:36.834Z,42.72
2023-03-02T23:56:03.740Z,43.09
2023-03-02T23:58:30.537Z,42.90
